createdAt,value
2018-05-04T00:02:00.175Z,17.80
2018-05-04T00:04:26.748Z,17.70
2018-05-04T00:06:53.404Z,17.60
2018-05-04T00:09:19.983Z,17.50
2018-05-04T00:11:46.589Z,17.40
2018-05-04T00:14:13.220Z,17.40
2018-05-04T00:16:39.822Z,17.30
2018-05-04T00:19:06.434Z,17.20
2018-05-04T00:21:33.010Z,17.10
2018-05-04T00:23:59.594Z,17.10
2018-05-04T00:26:26.198Z,17.00
2018-05-04T00:28:52.769Z,16.90
2018-05-04T00:31:19.346Z,16.90
2018-05-04T00:33:45.897Z,16.90
2018-05-04T00:36:12.511Z,16.80
2018-05-04T00:38:39.835Z,16.70
2018-05-04T00:41:06.414Z,16.70
2018-05-04T00:43:32.976Z,16.70
2018-05-04T00:45:59.588Z,16.60
2018-05-04T00:48:26.262Z,16.50
2018-05-04T00:50:52.879Z,16.50
2018-05-04T00:53:19.466Z,16.40
2018-05-04T00:55:46.025Z,16.30
2018-05-04T00:58:13.336Z,16.20
2018-05-04T01:00:39.869Z,16.20
2018-05-04T01:03:06.420Z,16.10
2018-05-04T01:05:33.036Z,16.00
2018-05-04T01:07:59.668Z,16.00
2018-05-04T01:10:26.260Z,15.90
2018-05-04T01:12:52.917Z,15.80
2018-05-04T01:15:19.496Z,15.80
2018-05-04T01:17:46.106Z,15.80
2018-05-04T01:20:12.698Z,15.60
2018-05-04T01:22:39.309Z,15.60
2018-05-04T01:25:05.913Z,15.50
2018-05-04T01:27:32.498Z,15.50
2018-05-04T01:30:00.084Z,15.40
2018-05-04T01:32:27.471Z,15.40
2018-05-04T01:34:54.000Z,15.30
2018-05-04T01:37:20.650Z,15.30
2018-05-04T01:39:47.255Z,15.30
2018-05-04T01:42:14.624Z,15.20
2018-05-04T01:44:41.269Z,15.20
2018-05-04T01:47:07.877Z,15.20
2018-05-04T01:49:35.183Z,15.20
2018-05-04T01:52:01.779Z,15.20
2018-05-04T01:54:29.121Z,15.20
2018-05-04T01:56:55.732Z,15.20
2018-05-04T01:59:22.342Z,15.30
2018-05-04T02:01:48.954Z,15.30
2018-05-04T02:04:15.617Z,15.30
2018-05-04T02:06:42.220Z,15.30
2018-05-04T02:09:09.610Z,15.40
2018-05-04T02:11:36.215Z,15.40
2018-05-04T02:14:02.909Z,15.40
2018-05-04T02:16:29.575Z,15.50
2018-05-04T02:18:56.149Z,15.50
2018-05-04T02:21:22.805Z,15.60
2018-05-04T02:23:49.403Z,15.60
2018-05-04T02:26:16.044Z,15.60
2018-05-04T02:28:42.688Z,15.70
2018-05-04T02:31:09.353Z,15.70
2018-05-04T02:33:36.030Z,15.70
2018-05-04T02:36:02.744Z,15.70
2018-05-04T02:38:29.424Z,15.70
2018-05-04T02:40:56.013Z,15.80
2018-05-04T02:43:22.649Z,15.80
2018-05-04T02:45:49.338Z,15.80
2018-05-04T02:48:15.939Z,15.80
2018-05-04T02:50:42.529Z,15.90
2018-05-04T02:53:09.883Z,15.90
2018-05-04T02:55:36.465Z,15.90
2018-05-04T02:58:03.090Z,15.90
2018-05-04T03:00:29.657Z,16.00
2018-05-04T03:02:56.240Z,16.10
2018-05-04T03:05:22.879Z,16.20
2018-05-04T03:07:49.534Z,16.40
2018-05-04T03:10:16.134Z,16.60
2018-05-04T03:12:42.763Z,16.70
2018-05-04T03:15:09.408Z,16.70
2018-05-04T03:17:35.989Z,16.80
2018-05-04T03:20:02.664Z,16.80
2018-05-04T03:22:29.338Z,16.80
2018-05-04T03:24:55.904Z,16.80
2018-05-04T03:27:22.495Z,16.80
2018-05-04T03:29:49.105Z,16.90
2018-05-04T03:32:15.698Z,16.90
2018-05-04T03:34:42.294Z,16.80
2018-05-04T03:37:08.915Z,16.80
2018-05-04T03:39:35.556Z,16.80
2018-05-04T03:42:02.150Z,16.80
2018-05-04T03:44:28.687Z,16.80
2018-05-04T03:46:56.485Z,16.70
2018-05-04T03:49:23.084Z,16.70
2018-05-04T03:51:49.678Z,16.70
2018-05-04T03:54:16.191Z,16.70
2018-05-04T03:56:42.756Z,16.70
2018-05-04T03:59:21.292Z,16.70
2018-05-04T04:02:00.637Z,16.70
2018-05-04T04:04:27.219Z,16.70
2018-05-04T04:06:53.835Z,16.70
2018-05-04T04:09:20.409Z,16.60
2018-05-04T04:11:47.041Z,16.60
2018-05-04T04:14:13.645Z,16.50
2018-05-04T04:16:40.239Z,16.40
2018-05-04T04:19:06.809Z,16.40
2018-05-04T04:21:33.451Z,16.40
2018-05-04T04:24:00.022Z,16.40
2018-05-04T04:26:26.649Z,16.40
2018-05-04T04:28:53.302Z,16.40
2018-05-04T04:31:19.865Z,16.40
2018-05-04T04:33:46.481Z,16.40
2018-05-04T04:36:13.136Z,16.30
2018-05-04T04:38:39.818Z,16.30
2018-05-04T04:41:06.415Z,16.30
2018-05-04T04:43:33.318Z,16.30
2018-05-04T04:45:59.931Z,16.30
2018-05-04T04:48:26.621Z,16.40
2018-05-04T04:50:53.413Z,16.50
2018-05-04T04:53:20.853Z,16.60
2018-05-04T04:55:48.210Z,16.60
2018-05-04T04:58:15.601Z,16.70
2018-05-04T05:00:42.219Z,16.70
2018-05-04T05:03:09.929Z,16.60
2018-05-04T05:05:36.750Z,16.60
2018-05-04T05:08:03.407Z,16.50
2018-05-04T05:10:29.994Z,16.40
2018-05-04T05:12:56.562Z,16.30
2018-05-04T05:15:28.567Z,16.30
2018-05-04T05:17:59.180Z,16.40
2018-05-04T05:20:28.326Z,16.40
2018-05-04T05:23:00.447Z,16.40
2018-05-04T05:25:28.704Z,16.40
2018-05-04T05:27:57.248Z,16.40
2018-05-04T05:30:28.840Z,16.40
2018-05-04T05:33:00.401Z,16.30
2018-05-04T05:35:29.492Z,16.40
2018-05-04T05:38:00.321Z,16.40
2018-05-04T05:40:32.689Z,16.40
2018-05-04T05:43:03.718Z,16.40
2018-05-04T05:45:32.831Z,16.50
2018-05-04T05:48:05.080Z,16.50
2018-05-04T05:50:35.122Z,16.60
2018-05-04T05:53:11.006Z,16.60
2018-05-04T05:55:42.790Z,16.60
2018-05-04T05:58:13.714Z,16.60
2018-05-04T06:00:42.749Z,16.60
2018-05-04T06:03:11.266Z,16.50
2018-05-04T06:05:43.774Z,16.50
2018-05-04T06:08:16.457Z,16.50
2018-05-04T06:10:48.646Z,16.50
2018-05-04T06:13:17.684Z,16.50
2018-05-04T06:15:48.636Z,16.50
2018-05-04T06:18:18.644Z,16.40
2018-05-04T06:20:50.845Z,16.40
2018-05-04T06:23:18.911Z,16.40
2018-05-04T06:25:47.622Z,16.40
2018-05-04T06:28:18.748Z,16.40
2018-05-04T06:30:49.025Z,16.40
2018-05-04T06:33:18.773Z,16.40
2018-05-04T06:35:47.519Z,16.40
2018-05-04T06:38:16.647Z,16.50
2018-05-04T06:40:48.924Z,16.40
2018-05-04T06:43:19.047Z,16.40
2018-05-04T06:45:50.074Z,16.50
2018-05-04T06:48:21.636Z,16.50
2018-05-04T06:50:49.536Z,16.50
2018-05-04T06:53:19.532Z,16.50
2018-05-04T06:55:49.642Z,16.50
2018-05-04T06:58:17.485Z,16.40
2018-05-04T07:00:45.507Z,16.40
2018-05-04T07:03:15.549Z,16.40
2018-05-04T07:05:44.427Z,16.40
2018-05-04T07:08:19.647Z,16.50
2018-05-04T07:10:50.554Z,16.50
2018-05-04T07:13:20.563Z,16.50
2018-05-04T07:15:47.987Z,16.50
2018-05-04T07:21:36.747Z,16.50
2018-05-04T07:24:06.282Z,16.50
2018-05-04T07:26:36.581Z,16.50
2018-05-04T07:29:05.528Z,16.60
2018-05-04T07:31:35.646Z,16.60
2018-05-04T07:34:05.402Z,16.60
2018-05-04T07:36:39.236Z,16.60
2018-05-04T07:39:09.344Z,16.60
2018-05-04T07:41:41.617Z,16.50
2018-05-04T07:44:10.622Z,16.50
2018-05-04T07:46:43.045Z,16.50
2018-05-04T07:49:11.829Z,16.50
2018-05-04T07:51:44.464Z,16.50
2018-05-04T07:54:17.916Z,16.60
2018-05-04T07:56:47.829Z,16.50
2018-05-04T07:59:18.705Z,16.50
2018-05-04T08:01:51.040Z,16.50
2018-05-04T08:04:20.445Z,16.50
2018-05-04T08:06:54.803Z,16.50
2018-05-04T08:09:27.106Z,16.40
2018-05-04T08:11:56.244Z,16.40
2018-05-04T08:14:25.449Z,16.40
2018-05-04T08:16:54.382Z,16.40
2018-05-04T08:22:01.444Z,16.50
2018-05-04T08:24:30.545Z,16.70
2018-05-04T08:27:01.656Z,16.70
2018-05-04T08:29:31.275Z,16.80
2018-05-04T08:32:00.194Z,16.80
2018-05-04T08:34:31.744Z,16.90
2018-05-04T08:37:01.561Z,17.00
2018-05-04T08:39:32.063Z,17.10
2018-05-04T08:42:04.311Z,17.10
2018-05-04T08:44:36.348Z,17.20
2018-05-04T08:47:04.238Z,17.30
2018-05-04T08:49:35.974Z,17.30
2018-05-04T08:52:05.555Z,17.50
2018-05-04T08:54:33.477Z,17.50
2018-05-04T08:57:03.049Z,17.60
2018-05-04T08:59:31.870Z,17.50
2018-05-04T09:01:59.843Z,17.50
2018-05-04T09:04:34.562Z,17.60
2018-05-04T09:07:04.068Z,17.70
2018-05-04T09:09:32.265Z,17.90
2018-05-04T09:11:59.602Z,18.10
2018-05-04T09:14:29.056Z,18.20
2018-05-04T09:16:56.401Z,18.20
2018-05-04T09:19:29.266Z,18.30
2018-05-04T09:22:03.913Z,18.30
2018-05-04T09:24:33.157Z,18.30
2018-05-04T09:27:01.837Z,18.20
2018-05-04T09:29:30.701Z,18.20
2018-05-04T09:32:00.814Z,18.20
2018-05-04T09:34:29.311Z,18.20
2018-05-04T09:36:59.389Z,18.00
2018-05-04T09:39:29.231Z,17.90
2018-05-04T09:41:58.580Z,17.80
2018-05-04T09:44:28.570Z,17.80
2018-05-04T09:46:56.343Z,17.90
2018-05-04T09:49:29.570Z,18.00
2018-05-04T09:51:59.580Z,18.10
2018-05-04T09:54:29.853Z,18.20
2018-05-04T09:57:00.222Z,18.30
2018-05-04T09:59:29.048Z,18.20
2018-05-04T10:01:58.918Z,18.30
2018-05-04T10:04:27.832Z,18.50
2018-05-04T10:06:56.297Z,18.40
2018-05-04T10:09:26.502Z,18.50
2018-05-04T10:11:57.454Z,18.40
2018-05-04T10:14:27.737Z,18.30
2018-05-04T10:16:58.306Z,18.40
2018-05-04T10:19:26.190Z,18.40
2018-05-04T10:21:53.697Z,18.50
2018-05-04T10:24:21.743Z,18.50
2018-05-04T10:26:50.576Z,18.80
2018-05-04T10:29:21.601Z,18.80
2018-05-04T10:31:49.507Z,18.90
2018-05-04T10:34:19.393Z,19.00
2018-05-04T10:36:48.852Z,19.10
2018-05-04T10:39:15.589Z,19.20
2018-05-04T10:41:43.286Z,19.60
2018-05-04T10:44:09.980Z,20.10
2018-05-04T10:46:37.645Z,20.50
2018-05-04T10:49:04.287Z,20.70
2018-05-04T10:51:31.748Z,20.80
2018-05-04T10:53:58.434Z,20.80
2018-05-04T10:56:26.937Z,20.60
2018-05-04T10:58:53.666Z,20.70
2018-05-04T11:01:20.600Z,20.80
2018-05-04T11:03:47.289Z,21.00
2018-05-04T11:06:13.960Z,21.40
2018-05-04T11:08:41.374Z,21.90
2018-05-04T11:11:08.003Z,21.90
2018-05-04T11:13:34.636Z,22.00
2018-05-04T11:16:02.260Z,22.30
2018-05-04T11:18:28.917Z,22.60
2018-05-04T11:20:55.602Z,23.80
2018-05-04T11:23:22.268Z,25.10
2018-05-04T11:25:49.665Z,26.80
2018-05-04T11:28:16.293Z,26.80
2018-05-04T11:30:42.964Z,26.30
2018-05-04T11:33:09.611Z,26.90
2018-05-04T11:35:36.222Z,27.70
2018-05-04T11:38:02.881Z,27.80
2018-05-04T11:40:29.535Z,27.30
2018-05-04T11:42:56.174Z,27.40
2018-05-04T11:45:22.872Z,28.50
2018-05-04T11:47:49.528Z,28.30
2018-05-04T11:50:16.137Z,28.20
2018-05-04T11:52:42.832Z,27.00
2018-05-04T11:55:10.512Z,25.80
2018-05-04T11:57:37.101Z,25.80
2018-05-04T12:00:03.736Z,25.70
2018-05-04T12:02:30.401Z,26.60
2018-05-04T12:04:57.032Z,27.00
2018-05-04T12:07:24.623Z,26.60
2018-05-04T12:09:51.246Z,26.50
2018-05-04T12:12:18.040Z,26.30
2018-05-04T12:14:44.638Z,27.00
2018-05-04T12:17:11.976Z,26.70
2018-05-04T12:19:38.572Z,26.70
2018-05-04T12:22:05.194Z,26.70
2018-05-04T12:24:31.860Z,26.20
2018-05-04T12:26:58.797Z,25.90
2018-05-04T12:29:25.605Z,25.60
2018-05-04T12:31:52.915Z,25.20
2018-05-04T12:34:19.534Z,25.10
2018-05-04T12:36:46.074Z,24.90
2018-05-04T12:39:12.631Z,25.10
2018-05-04T12:41:39.302Z,24.50
2018-05-04T12:44:05.935Z,23.90
2018-05-04T12:46:32.522Z,23.90
2018-05-04T12:48:59.223Z,23.90
2018-05-04T12:51:26.559Z,24.10
2018-05-04T12:53:53.177Z,24.10
2018-05-04T12:56:19.856Z,23.80
2018-05-04T12:58:47.409Z,23.50
2018-05-04T13:01:14.077Z,23.50
2018-05-04T13:03:40.672Z,23.30
2018-05-04T13:06:07.996Z,22.90
2018-05-04T13:08:34.560Z,23.00
2018-05-04T13:11:01.203Z,23.10
2018-05-04T13:13:27.835Z,23.10
2018-05-04T13:15:54.471Z,23.00
2018-05-04T13:18:21.165Z,23.10
2018-05-04T13:20:49.198Z,23.00
2018-05-04T13:23:15.918Z,22.90
2018-05-04T13:25:42.467Z,22.90
2018-05-04T13:28:09.073Z,23.00
2018-05-04T13:30:35.705Z,22.80
2018-05-04T13:33:02.297Z,22.90
2018-05-04T13:35:29.668Z,22.40
2018-05-04T13:37:56.309Z,22.40
2018-05-04T13:40:23.019Z,22.40
2018-05-04T13:42:49.862Z,22.50
2018-05-04T13:45:17.257Z,23.00
2018-05-04T13:47:43.876Z,22.90
2018-05-04T13:50:10.488Z,22.90
2018-05-04T13:52:37.137Z,22.90
2018-05-04T13:55:04.504Z,22.70
2018-05-04T13:57:31.152Z,22.60
2018-05-04T13:59:57.892Z,22.30
2018-05-04T14:02:24.549Z,22.40
2018-05-04T14:04:51.204Z,22.20
2018-05-04T14:07:17.807Z,22.10
2018-05-04T14:09:44.796Z,22.10
2018-05-04T14:12:11.488Z,22.00
2018-05-04T14:14:38.287Z,21.90
2018-05-04T14:17:04.924Z,21.90
2018-05-04T14:19:31.638Z,21.80
2018-05-04T14:21:58.297Z,21.80
2018-05-04T14:24:25.524Z,21.80
2018-05-04T14:26:52.239Z,21.90
2018-05-04T14:29:19.024Z,21.90
2018-05-04T14:31:45.608Z,21.80
2018-05-04T14:34:12.173Z,21.80
2018-05-04T14:36:38.790Z,21.70
2018-05-04T14:42:28.243Z,21.70
2018-05-04T14:44:55.993Z,21.80
2018-05-04T14:47:22.586Z,21.80
2018-05-04T14:49:49.925Z,21.60
2018-05-04T14:52:16.490Z,21.60
2018-05-04T14:54:43.951Z,21.60
2018-05-04T14:57:10.611Z,21.60
2018-05-04T14:59:37.320Z,21.60
2018-05-04T15:02:03.962Z,21.60
2018-05-04T15:04:30.649Z,21.70
2018-05-04T15:06:57.289Z,21.80
2018-05-04T15:09:24.943Z,21.80
2018-05-04T15:11:52.822Z,21.50
2018-05-04T15:14:19.557Z,21.20
2018-05-04T15:16:46.408Z,21.10
2018-05-04T15:19:13.278Z,20.90
2018-05-04T15:21:40.773Z,20.80
2018-05-04T15:24:07.671Z,20.80
2018-05-04T15:26:34.314Z,20.80
2018-05-04T15:29:00.948Z,21.00
2018-05-04T15:31:27.618Z,21.10
2018-05-04T15:33:54.238Z,21.10
2018-05-04T15:36:20.833Z,21.20
2018-05-04T15:38:47.464Z,21.40
2018-05-04T15:41:14.048Z,21.60
2018-05-04T15:43:41.439Z,22.10
2018-05-04T15:46:08.184Z,22.00
2018-05-04T15:48:41.913Z,22.30
2018-05-04T15:51:14.325Z,22.30
2018-05-04T15:53:41.667Z,22.00
2018-05-04T15:56:08.259Z,22.00
2018-05-04T15:58:35.724Z,21.90
2018-05-04T16:01:02.292Z,21.70
2018-05-04T16:03:28.895Z,21.60
2018-05-04T16:05:56.252Z,21.20
2018-05-04T16:08:23.023Z,21.20
2018-05-04T16:10:49.629Z,21.00
2018-05-04T16:13:16.283Z,20.80
2018-05-04T16:15:42.905Z,20.70
2018-05-04T16:18:09.503Z,20.50
2018-05-04T16:20:54.583Z,20.20
2018-05-04T16:23:30.034Z,20.20
2018-05-04T16:25:57.058Z,20.20
2018-05-04T16:28:24.411Z,19.90
2018-05-04T16:30:51.846Z,19.90
2018-05-04T16:33:18.500Z,19.90
2018-05-04T16:35:45.082Z,19.80
2018-05-04T16:38:11.660Z,19.70
2018-05-04T16:40:38.308Z,19.60
2018-05-04T16:43:07.486Z,19.50
2018-05-04T16:45:39.518Z,19.50
2018-05-04T16:48:12.264Z,19.50
2018-05-04T16:50:38.879Z,19.50
2018-05-04T16:53:05.497Z,19.40
2018-05-04T16:55:33.126Z,19.40
2018-05-04T16:58:01.641Z,19.40
2018-05-04T17:00:29.503Z,19.30
2018-05-04T17:02:57.114Z,19.30
2018-05-04T17:05:23.805Z,19.30
2018-05-04T17:07:51.020Z,19.30
2018-05-04T17:10:17.832Z,19.20
2018-05-04T17:12:44.565Z,19.20
2018-05-04T17:15:11.289Z,19.20
2018-05-04T17:17:38.005Z,19.10
2018-05-04T17:20:04.657Z,19.10
2018-05-04T17:22:31.265Z,19.20
2018-05-04T17:24:57.855Z,19.10
2018-05-04T17:27:24.488Z,19.20
2018-05-04T17:29:57.253Z,19.20
2018-05-04T17:32:24.267Z,19.20
2018-05-04T17:34:50.921Z,19.20
2018-05-04T17:37:19.092Z,19.20
2018-05-04T17:39:48.039Z,19.20
2018-05-04T17:42:14.698Z,19.20
2018-05-04T17:44:43.797Z,19.10
2018-05-04T17:47:11.393Z,19.10
2018-05-04T17:49:38.040Z,19.00
2018-05-04T17:52:04.833Z,19.00
2018-05-04T17:54:32.853Z,18.90
2018-05-04T17:56:59.670Z,18.90
2018-05-04T17:59:26.435Z,18.90
2018-05-04T18:01:53.115Z,18.90
2018-05-04T18:04:20.781Z,18.90
2018-05-04T18:06:48.309Z,18.90
2018-05-04T18:09:14.976Z,18.80
2018-05-04T18:11:41.654Z,18.80
2018-05-04T18:14:08.269Z,18.60
2018-05-04T18:16:35.015Z,18.60
2018-05-04T18:19:01.987Z,18.60
2018-05-04T18:21:28.616Z,18.60
2018-05-04T18:23:55.235Z,18.50
2018-05-04T18:26:21.960Z,18.50
2018-05-04T18:28:50.949Z,18.40
2018-05-04T18:31:17.769Z,18.40
2018-05-04T18:33:44.441Z,18.40
2018-05-04T18:36:13.910Z,17.80
2018-05-04T18:38:40.539Z,17.80
2018-05-04T18:41:09.215Z,17.50
2018-05-04T18:43:36.130Z,17.40
2018-05-04T18:46:03.618Z,17.30
2018-05-04T18:48:30.305Z,17.30
2018-05-04T18:50:57.187Z,17.30
2018-05-04T18:53:25.392Z,17.30
2018-05-04T18:55:52.832Z,17.40
2018-05-04T18:58:21.578Z,17.30
2018-05-04T19:00:50.493Z,17.40
2018-05-04T19:03:21.806Z,17.40
2018-05-04T19:05:53.908Z,17.40
2018-05-04T19:08:20.880Z,17.40
2018-05-04T19:10:47.466Z,17.40
2018-05-04T19:13:15.620Z,17.30
2018-05-04T19:15:42.646Z,17.30
2018-05-04T19:18:09.460Z,17.30
2018-05-04T19:20:39.696Z,17.30
2018-05-04T19:23:07.263Z,17.30
2018-05-04T19:25:34.642Z,17.20
2018-05-04T19:28:01.426Z,17.20
2018-05-04T19:30:28.199Z,17.10
2018-05-04T19:32:55.602Z,16.80
2018-05-04T19:35:22.233Z,16.80
2018-05-04T19:37:48.889Z,16.80
2018-05-04T19:40:15.560Z,16.80
2018-05-04T19:42:42.239Z,16.80
2018-05-04T19:45:09.171Z,16.80
2018-05-04T19:47:36.785Z,16.80
2018-05-04T19:50:03.421Z,16.80
2018-05-04T19:52:30.551Z,16.80
2018-05-04T19:54:57.199Z,16.80
2018-05-04T19:57:23.803Z,16.80
2018-05-04T19:59:50.471Z,16.70
2018-05-04T20:02:17.918Z,16.70
2018-05-04T20:04:44.630Z,16.70
2018-05-04T20:07:11.306Z,16.80
2018-05-04T20:09:37.954Z,16.90
2018-05-04T20:12:05.399Z,16.90
2018-05-04T20:14:32.014Z,17.00
2018-05-04T20:16:58.632Z,17.00
2018-05-04T20:19:25.322Z,17.00
2018-05-04T20:21:51.942Z,17.00
2018-05-04T20:24:18.620Z,17.10
2018-05-04T20:26:45.303Z,17.10
2018-05-04T20:29:11.926Z,17.10
2018-05-04T20:31:38.544Z,17.00
2018-05-04T20:34:05.136Z,16.90
2018-05-04T20:36:31.733Z,16.90
2018-05-04T20:38:58.366Z,16.80
2018-05-04T20:41:25.077Z,16.80
2018-05-04T20:43:52.443Z,16.70
2018-05-04T20:46:19.069Z,16.70
2018-05-04T20:48:46.438Z,16.70
2018-05-04T20:51:13.096Z,16.70
2018-05-04T20:53:39.748Z,16.70
2018-05-04T20:56:06.321Z,16.70
2018-05-04T20:58:33.769Z,16.60
2018-05-04T21:01:00.325Z,16.60
2018-05-04T21:03:26.956Z,16.60
2018-05-04T21:05:54.330Z,16.40
2018-05-04T21:08:21.843Z,16.40
2018-05-04T21:10:48.451Z,16.40
2018-05-04T21:13:15.800Z,16.30
2018-05-04T21:15:42.403Z,16.20
2018-05-04T21:18:09.059Z,16.10
2018-05-04T21:20:35.684Z,16.00
2018-05-04T21:23:03.054Z,15.60
2018-05-04T21:25:30.392Z,15.40
2018-05-04T21:27:57.743Z,15.30
2018-05-04T21:30:25.104Z,15.30
2018-05-04T21:32:52.489Z,15.20
2018-05-04T21:35:19.146Z,15.20
2018-05-04T21:37:46.453Z,15.20
2018-05-04T21:40:13.794Z,15.10
2018-05-04T21:42:40.362Z,15.10
2018-05-04T21:45:06.956Z,15.10
2018-05-04T21:47:33.572Z,15.10
2018-05-04T21:50:00.201Z,15.00
2018-05-04T21:52:26.801Z,15.10
2018-05-04T21:54:54.157Z,15.00
2018-05-04T21:57:21.480Z,15.00
2018-05-04T21:59:48.108Z,15.00
2018-05-04T22:02:14.760Z,14.90
2018-05-04T22:04:41.513Z,15.00
2018-05-04T22:07:08.279Z,15.00
2018-05-04T22:09:34.978Z,15.00
2018-05-04T22:12:02.384Z,14.90
2018-05-04T22:14:29.079Z,14.90
2018-05-04T22:16:55.724Z,14.90
2018-05-04T22:19:22.341Z,14.90
2018-05-04T22:21:49.031Z,14.90
2018-05-04T22:24:15.681Z,14.90
2018-05-04T22:26:42.311Z,14.80
2018-05-04T22:29:08.929Z,14.80
2018-05-04T22:31:35.575Z,14.80
2018-05-04T22:34:02.217Z,14.80
2018-05-04T22:36:28.901Z,14.80
2018-05-04T22:38:55.514Z,14.80
2018-05-04T22:41:22.199Z,14.80
2018-05-04T22:43:48.899Z,14.80
2018-05-04T22:46:15.507Z,14.80
2018-05-04T22:48:42.900Z,14.80
2018-05-04T22:51:09.506Z,14.80
2018-05-04T22:53:36.822Z,14.70
2018-05-04T22:56:03.539Z,14.70
2018-05-04T22:58:30.214Z,14.80
2018-05-04T23:00:56.952Z,14.80
2018-05-04T23:03:24.506Z,14.80
2018-05-04T23:05:51.233Z,14.80
2018-05-04T23:08:17.982Z,14.80
2018-05-04T23:10:44.764Z,14.80
2018-05-04T23:13:11.574Z,14.70
2018-05-04T23:15:38.287Z,14.70
2018-05-04T23:18:05.017Z,14.60
2018-05-04T23:20:31.771Z,14.60
2018-05-04T23:22:58.445Z,14.50
2018-05-04T23:25:25.920Z,14.50
2018-05-04T23:27:52.675Z,14.50
2018-05-04T23:30:19.299Z,14.50
2018-05-04T23:32:46.088Z,14.50
2018-05-04T23:35:12.809Z,14.50
2018-05-04T23:37:39.466Z,14.50
2018-05-04T23:40:06.150Z,14.50
2018-05-04T23:42:33.671Z,14.50
2018-05-04T23:45:00.274Z,14.50
2018-05-04T23:47:26.896Z,14.50
2018-05-04T23:49:53.553Z,14.50
2018-05-04T23:52:20.212Z,14.50
2018-05-04T23:54:46.928Z,14.50
2018-05-04T23:57:13.713Z,14.50
2018-05-04T23:59:40.242Z,14.50
